createdAt,value
2022-11-21T00:01:55.531Z,7.55
2022-11-21T00:03:58.449Z,7.60
2022-11-21T00:06:03.154Z,7.57
2022-11-21T00:08:05.271Z,7.90
2022-11-21T00:10:07.445Z,8.18
2022-11-21T00:12:09.046Z,7.68
2022-11-21T00:14:10.685Z,8.15
2022-11-21T00:18:16.941Z,8.10
2022-11-21T00:20:22.306Z,7.65
2022-11-21T00:22:23.965Z,7.82
2022-11-21T00:26:27.345Z,8.23
2022-11-21T00:28:28.876Z,7.90
2022-11-21T00:30:30.992Z,7.30
2022-11-21T00:32:32.615Z,7.78
2022-11-21T00:36:36.891Z,7.25
2022-11-21T00:38:38.536Z,8.15
2022-11-21T00:42:41.628Z,7.20
2022-11-21T00:44:43.347Z,6.97
2022-11-21T00:48:46.234Z,7.10
2022-11-21T00:50:49.645Z,8.15
2022-11-21T00:52:55.903Z,7.82
2022-11-21T00:54:57.433Z,7.63
2022-11-21T00:56:59.036Z,7.80
2022-11-21T01:01:04.222Z,7.90
2022-11-21T01:03:05.828Z,8.13
2022-11-21T01:05:10.545Z,7.50
2022-11-21T01:07:13.378Z,7.30
2022-11-21T01:09:16.348Z,8.25
2022-11-21T01:11:19.782Z,7.68
2022-11-21T01:13:21.356Z,7.32
2022-11-21T01:15:22.941Z,7.10
2022-11-21T01:17:24.491Z,8.13
2022-11-21T01:19:29.145Z,8.57
2022-11-21T01:21:31.759Z,7.82
2022-11-21T01:23:33.326Z,7.63
2022-11-21T01:25:38.857Z,8.07
2022-11-21T01:27:40.416Z,7.55
2022-11-21T01:29:41.984Z,7.78
2022-11-21T01:31:43.520Z,7.38
2022-11-21T01:33:49.083Z,7.63
2022-11-21T01:35:50.686Z,8.65
2022-11-21T01:37:52.831Z,7.40
2022-11-21T01:39:54.432Z,7.63
2022-11-21T01:41:57.427Z,8.60
2022-11-21T01:43:59.281Z,8.02
2022-11-21T01:46:06.694Z,7.55
2022-11-21T01:48:11.447Z,7.63
2022-11-21T01:50:13.250Z,8.05
2022-11-21T01:52:23.261Z,7.32
2022-11-21T01:54:29.475Z,7.70
2022-11-21T01:56:38.607Z,8.20
2022-11-21T01:58:46.429Z,8.27
2022-11-21T02:00:48.380Z,7.68
2022-11-21T02:02:56.112Z,7.30
2022-11-21T02:04:59.587Z,7.53
2022-11-21T02:07:06.352Z,7.75
2022-11-21T02:09:08.510Z,7.88
2022-11-21T02:11:17.818Z,7.82
2022-11-21T02:13:19.944Z,8.63
2022-11-21T02:15:28.231Z,8.73
2022-11-21T02:17:31.493Z,9.20
2022-11-21T02:19:38.780Z,7.95
2022-11-21T02:21:49.620Z,7.75
2022-11-21T02:24:00.516Z,7.70
2022-11-21T02:26:03.822Z,7.45
2022-11-21T02:28:07.349Z,7.95
2022-11-21T02:30:13.857Z,7.82
2022-11-21T02:32:22.018Z,7.18
2022-11-21T02:34:23.531Z,7.47
2022-11-21T02:36:41.973Z,7.50
2022-11-21T02:38:45.789Z,7.72
2022-11-21T02:40:53.479Z,7.78
2022-11-21T02:43:02.522Z,7.70
2022-11-21T02:45:13.665Z,7.70
2022-11-21T02:47:15.217Z,7.72
2022-11-21T02:49:22.138Z,8.82
2022-11-21T02:51:24.317Z,7.22
2022-11-21T02:53:29.410Z,7.60
2022-11-21T02:55:31.102Z,7.68
2022-11-21T02:59:35.520Z,7.30
2022-11-21T03:01:37.123Z,7.30
2022-11-21T03:03:38.752Z,7.70
2022-11-21T03:07:42.253Z,7.78
2022-11-21T03:09:43.806Z,8.35
2022-11-21T03:11:45.395Z,7.63
2022-11-21T03:13:46.970Z,7.38
2022-11-21T03:15:51.012Z,7.38
2022-11-21T03:17:52.597Z,8.10
2022-11-21T03:19:54.149Z,7.88
2022-11-21T03:21:56.043Z,8.02
2022-11-21T03:23:57.701Z,7.03
2022-11-21T03:28:00.724Z,7.28
2022-11-21T03:30:02.313Z,7.38
2022-11-21T03:32:05.549Z,7.85
2022-11-21T03:34:07.313Z,8.05
2022-11-21T03:36:08.930Z,7.65
2022-11-21T03:40:12.757Z,7.88
2022-11-21T03:42:14.351Z,8.27
2022-11-21T03:44:16.339Z,8.13
2022-11-21T03:46:17.950Z,8.25
2022-11-21T03:48:20.882Z,7.82
2022-11-21T03:50:22.470Z,8.00
2022-11-21T03:52:24.087Z,8.18
2022-11-21T03:56:28.227Z,7.57
2022-11-21T03:58:29.806Z,7.55
2022-11-21T04:00:31.361Z,8.73
2022-11-21T04:02:32.972Z,8.63
2022-11-21T04:04:35.965Z,8.60
2022-11-21T04:06:37.600Z,7.55
2022-11-21T04:10:46.752Z,8.93
2022-11-21T04:12:48.323Z,8.52
2022-11-21T04:14:49.953Z,9.10
2022-11-21T04:18:52.940Z,8.00
2022-11-21T04:22:59.019Z,7.72
2022-11-21T04:27:02.161Z,7.68
2022-11-21T04:29:03.732Z,8.90
2022-11-21T04:31:10.317Z,8.27
2022-11-21T04:33:13.314Z,8.38
2022-11-21T04:35:15.024Z,8.00
2022-11-21T04:37:18.076Z,8.18
2022-11-21T04:39:19.801Z,8.63
2022-11-21T04:43:22.752Z,8.10
2022-11-21T04:47:25.675Z,8.52
2022-11-21T04:49:27.255Z,7.93
2022-11-21T04:53:31.549Z,7.95
2022-11-21T04:55:33.772Z,8.05
2022-11-21T04:57:35.913Z,8.68
2022-11-21T04:59:37.445Z,8.10
2022-11-21T05:01:39.042Z,8.60
2022-11-21T05:05:42.135Z,8.30
2022-11-21T05:09:46.504Z,7.70
2022-11-21T05:11:48.059Z,9.07
2022-11-21T05:13:52.299Z,9.10
2022-11-21T05:15:57.276Z,8.35
2022-11-21T05:17:59.147Z,8.68
2022-11-21T05:20:00.756Z,8.80
2022-11-21T05:24:04.063Z,8.32
2022-11-21T05:26:06.986Z,8.57
2022-11-21T05:28:08.742Z,8.57
2022-11-21T05:30:12.198Z,8.18
2022-11-21T05:32:13.708Z,8.55
2022-11-21T05:34:15.314Z,9.23
2022-11-21T05:38:18.308Z,8.43
2022-11-21T05:42:22.614Z,8.23
2022-11-21T05:44:24.156Z,9.00
2022-11-21T05:46:26.351Z,10.88
2022-11-21T05:48:27.867Z,9.18
2022-11-21T05:50:29.394Z,10.93
2022-11-21T05:52:30.971Z,8.15
2022-11-21T05:54:32.492Z,9.18
2022-11-21T05:56:34.013Z,9.13
2022-11-21T05:58:37.272Z,9.45
2022-11-21T06:00:39.154Z,8.80
2022-11-21T06:02:40.673Z,8.73
2022-11-21T06:04:42.247Z,8.50
2022-11-21T06:06:43.843Z,9.60
2022-11-21T06:10:47.774Z,8.25
2022-11-21T06:14:52.169Z,9.13
2022-11-21T06:16:53.719Z,9.60
2022-11-21T06:18:58.735Z,9.25
2022-11-21T06:21:02.010Z,8.85
2022-11-21T06:23:03.559Z,9.38
2022-11-21T06:25:05.750Z,9.15
2022-11-21T06:27:07.290Z,9.10
2022-11-21T06:29:11.110Z,9.27
2022-11-21T06:31:15.614Z,9.13
2022-11-21T06:33:17.673Z,8.90
2022-11-21T06:35:19.431Z,9.63
2022-11-21T06:37:23.567Z,9.95
2022-11-21T06:39:25.147Z,9.32
2022-11-21T06:41:28.068Z,8.57
2022-11-21T06:43:29.569Z,10.38
2022-11-21T06:45:31.258Z,8.93
2022-11-21T06:49:36.518Z,9.43
2022-11-21T06:51:38.081Z,9.55
2022-11-21T06:53:39.671Z,9.95
2022-11-21T06:57:42.561Z,9.10
2022-11-21T06:59:44.101Z,9.85
2022-11-21T07:01:45.673Z,9.90
2022-11-21T07:05:50.361Z,9.48
2022-11-21T07:07:51.916Z,10.18
2022-11-21T07:09:53.443Z,10.60
2022-11-21T07:11:55.036Z,10.02
2022-11-21T07:16:01.835Z,11.95
2022-11-21T07:18:03.538Z,11.52
2022-11-21T07:20:07.733Z,10.70
2022-11-21T07:22:09.335Z,9.18
2022-11-21T07:26:12.542Z,8.60
2022-11-21T07:30:16.139Z,9.07
2022-11-21T07:32:17.691Z,10.02
2022-11-21T07:34:19.254Z,10.45
2022-11-21T07:38:23.859Z,8.88
2022-11-21T07:40:25.696Z,9.93
2022-11-21T07:42:27.461Z,9.07
2022-11-21T07:44:29.001Z,9.38
2022-11-21T07:46:30.557Z,9.30
2022-11-21T07:48:32.318Z,9.38
2022-11-21T07:50:34.096Z,9.48
2022-11-21T07:52:37.379Z,9.82
2022-11-21T07:54:38.889Z,9.15
2022-11-21T07:56:40.408Z,8.93
2022-11-21T07:58:41.958Z,9.50
2022-11-21T08:00:43.677Z,9.23
2022-11-21T08:02:45.307Z,9.93
2022-11-21T08:06:48.707Z,9.50
2022-11-21T08:10:55.522Z,9.27
2022-11-21T08:12:57.070Z,10.88
2022-11-21T08:14:58.663Z,10.90
2022-11-21T08:17:00.595Z,10.27
2022-11-21T08:19:02.613Z,10.43
2022-11-21T08:21:05.136Z,11.02
2022-11-21T08:23:07.288Z,11.55
2022-11-21T08:25:10.640Z,11.73
2022-11-21T08:27:12.177Z,10.95
2022-11-21T08:29:14.380Z,10.85
2022-11-21T08:31:16.111Z,10.85
2022-11-21T08:33:17.636Z,10.63
2022-11-21T08:35:19.152Z,11.15
2022-11-21T08:37:20.708Z,9.65
2022-11-21T08:39:22.230Z,9.20
2022-11-21T08:41:25.137Z,10.70
2022-11-21T08:43:26.673Z,10.68
2022-11-21T08:45:28.557Z,9.57
2022-11-21T08:47:32.609Z,8.57
2022-11-21T08:49:34.182Z,8.63
2022-11-21T08:51:35.857Z,9.00
2022-11-21T08:55:38.819Z,8.77
2022-11-21T08:57:43.383Z,8.95
2022-11-21T08:59:44.882Z,8.55
2022-11-21T09:01:46.560Z,8.38
2022-11-21T09:03:48.152Z,8.82
2022-11-21T09:05:49.736Z,7.97
2022-11-21T09:07:56.090Z,8.60
2022-11-21T09:09:57.634Z,7.65
2022-11-21T09:11:59.186Z,8.00
2022-11-21T09:14:02.112Z,7.97
2022-11-21T09:16:04.199Z,8.68
2022-11-21T09:18:05.796Z,7.60
2022-11-21T09:20:08.398Z,7.78
2022-11-21T09:22:09.962Z,8.55
2022-11-21T09:24:11.491Z,8.13
2022-11-21T09:26:13.448Z,7.93
2022-11-21T09:28:15.364Z,7.18
2022-11-21T09:30:18.491Z,7.40
2022-11-21T09:32:20.131Z,7.68
2022-11-21T09:36:23.225Z,6.78
2022-11-21T09:38:24.961Z,7.45
2022-11-21T09:40:28.859Z,8.20
2022-11-21T09:42:55.689Z,7.22
2022-11-21T09:45:07.395Z,7.75
2022-11-21T09:47:21.641Z,7.70
2022-11-21T09:49:25.472Z,8.23
2022-11-21T09:51:30.691Z,7.68
2022-11-21T09:53:36.356Z,8.07
2022-11-21T09:55:43.833Z,7.78
2022-11-21T09:57:48.449Z,7.60
2022-11-21T09:59:51.895Z,7.80
2022-11-21T10:01:53.539Z,8.30
2022-11-21T10:06:08.077Z,6.50
2022-11-21T10:08:20.638Z,7.13
2022-11-21T10:10:34.185Z,7.53
2022-11-21T10:12:44.219Z,7.90
2022-11-21T10:14:55.028Z,8.25
2022-11-21T10:17:07.640Z,7.10
2022-11-21T10:19:37.680Z,6.65
2022-11-21T10:21:59.431Z,6.28
2022-11-21T10:24:15.470Z,5.90
2022-11-21T10:26:22.926Z,5.85
2022-11-21T10:28:40.894Z,6.28
2022-11-21T10:30:45.121Z,6.28
2022-11-21T10:32:50.495Z,6.38
2022-11-21T10:34:58.596Z,6.25
2022-11-21T10:37:11.950Z,6.47
2022-11-21T10:39:18.336Z,6.32
2022-11-21T10:41:25.641Z,4.93
2022-11-21T10:43:36.046Z,5.13
2022-11-21T10:45:37.590Z,6.15
2022-11-21T10:47:39.089Z,5.25
2022-11-21T10:49:42.189Z,6.10
2022-11-21T10:51:50.957Z,5.55
2022-11-21T10:54:07.796Z,5.85
2022-11-21T10:56:13.550Z,5.72
2022-11-21T10:58:17.533Z,5.07
2022-11-21T11:00:22.984Z,5.95
2022-11-21T11:02:25.656Z,5.70
2022-11-21T11:04:33.584Z,6.85
2022-11-21T11:06:41.162Z,4.72
2022-11-21T11:08:51.989Z,5.53
2022-11-21T11:11:06.027Z,5.82
2022-11-21T11:15:52.879Z,5.63
2022-11-21T11:17:57.097Z,5.88
2022-11-21T11:20:05.409Z,5.03
2022-11-21T11:22:27.280Z,5.32
2022-11-21T11:24:30.156Z,5.53
2022-11-21T11:26:32.206Z,5.82
2022-11-21T11:28:37.231Z,5.60
2022-11-21T11:30:40.081Z,5.88
2022-11-21T11:32:41.603Z,6.53
2022-11-21T11:34:52.440Z,5.25
2022-11-21T11:36:56.362Z,5.72
2022-11-21T11:38:59.803Z,4.82
2022-11-21T11:41:13.156Z,5.47
2022-11-21T11:43:31.255Z,5.90
2022-11-21T11:45:51.571Z,5.65
2022-11-21T11:47:55.625Z,5.35
2022-11-21T11:50:01.037Z,5.53
2022-11-21T11:52:05.828Z,5.63
2022-11-21T11:54:15.202Z,6.00
2022-11-21T11:56:24.288Z,5.35
2022-11-21T11:58:33.445Z,6.05
2022-11-21T12:00:42.178Z,6.53
2022-11-21T12:02:53.251Z,6.65
2022-11-21T12:05:01.357Z,6.57
2022-11-21T12:09:37.852Z,8.45
2022-11-21T12:11:50.518Z,6.53
2022-11-21T12:13:55.588Z,6.00
2022-11-21T12:16:08.643Z,7.57
2022-11-21T12:18:21.664Z,6.95
2022-11-21T12:20:27.204Z,6.63
2022-11-21T12:22:28.804Z,6.53
2022-11-21T12:24:30.345Z,5.95
2022-11-21T12:26:40.976Z,6.22
2022-11-21T12:28:57.972Z,6.35
2022-11-21T12:31:08.820Z,6.50
2022-11-21T12:33:15.872Z,6.60
2022-11-21T12:35:32.535Z,6.28
2022-11-21T12:37:43.654Z,6.07
2022-11-21T12:39:58.111Z,6.63
2022-11-21T12:44:19.777Z,5.88
2022-11-21T12:46:27.925Z,6.30
2022-11-21T12:48:51.587Z,6.30
2022-11-21T12:51:07.917Z,6.57
2022-11-21T12:53:16.850Z,6.45
2022-11-21T12:55:32.238Z,6.22
2022-11-21T12:57:56.347Z,6.50
2022-11-21T13:00:06.159Z,5.78
2022-11-21T13:02:21.950Z,6.22
2022-11-21T13:04:27.534Z,6.18
2022-11-21T13:06:32.768Z,5.90
2022-11-21T13:08:37.816Z,6.65
2022-11-21T13:10:49.025Z,6.18
2022-11-21T13:12:59.356Z,6.10
2022-11-21T13:15:14.092Z,5.80
2022-11-21T13:17:27.771Z,5.68
2022-11-21T13:19:37.427Z,6.30
2022-11-21T13:21:43.984Z,5.85
2022-11-21T13:23:45.534Z,6.10
2022-11-21T13:25:48.092Z,7.00
2022-11-21T13:27:49.676Z,6.00
2022-11-21T13:30:20.395Z,6.57
2022-11-21T13:32:44.918Z,6.60
2022-11-21T13:34:46.438Z,5.68
2022-11-21T13:36:48.120Z,6.63
2022-11-21T13:41:09.735Z,6.50
2022-11-21T13:43:33.381Z,6.93
2022-11-21T13:45:40.785Z,7.03
2022-11-21T13:48:24.837Z,6.38
2022-11-21T13:51:08.333Z,6.95
2022-11-21T13:53:25.179Z,6.20
2022-11-21T13:55:51.036Z,6.32
2022-11-21T13:58:05.324Z,6.57
2022-11-21T14:00:29.143Z,6.40
2022-11-21T14:02:53.571Z,7.22
2022-11-21T14:05:12.091Z,6.63
2022-11-21T14:07:22.884Z,6.93
2022-11-21T14:09:27.816Z,6.22
2022-11-21T14:11:36.070Z,6.82
2022-11-21T14:15:49.287Z,6.40
2022-11-21T14:17:54.773Z,6.45
2022-11-21T14:19:59.218Z,7.20
2022-11-21T14:22:02.152Z,7.05
2022-11-21T14:24:12.553Z,6.93
2022-11-21T14:26:16.664Z,7.00
2022-11-21T14:28:24.077Z,7.93
2022-11-21T14:30:29.214Z,7.70
2022-11-21T14:32:31.891Z,6.47
2022-11-21T14:34:33.392Z,6.20
2022-11-21T14:36:35.792Z,6.32
2022-11-21T14:38:43.300Z,6.97
2022-11-21T14:40:44.857Z,6.90
2022-11-21T14:42:47.143Z,7.50
2022-11-21T14:45:06.468Z,6.95
2022-11-21T14:47:25.323Z,6.88
2022-11-21T14:49:28.170Z,6.80
2022-11-21T14:53:32.271Z,6.95
2022-11-21T14:55:35.378Z,7.28
2022-11-21T14:57:40.924Z,7.47
2022-11-21T14:59:43.832Z,7.45
2022-11-21T15:01:56.708Z,7.20
2022-11-21T15:03:59.465Z,7.60
2022-11-21T15:06:06.258Z,8.13
2022-11-21T15:08:38.739Z,7.40
2022-11-21T15:10:35.624Z,9.00
2022-11-21T15:12:49.693Z,8.07
2022-11-21T15:14:55.231Z,7.80
2022-11-21T15:16:58.513Z,8.00
2022-11-21T15:19:00.149Z,7.80
2022-11-21T15:21:06.030Z,7.18
2022-11-21T15:23:26.140Z,7.32
2022-11-21T15:25:29.563Z,7.35
2022-11-21T15:27:32.844Z,7.38
2022-11-21T15:29:35.834Z,7.63
2022-11-21T15:31:37.385Z,6.75
2022-11-21T15:34:19.255Z,8.32
2022-11-21T15:36:15.916Z,7.40
2022-11-21T15:38:26.417Z,8.35
2022-11-21T15:40:28.160Z,7.60
2022-11-21T15:42:36.226Z,7.40
2022-11-21T15:46:57.835Z,7.20
2022-11-21T15:49:06.215Z,6.55
2022-11-21T15:51:20.379Z,7.13
2022-11-21T15:53:25.095Z,6.95
2022-11-21T15:55:27.748Z,6.65
2022-11-21T15:57:29.312Z,5.95
2022-11-21T15:59:31.530Z,6.03
2022-11-21T16:01:35.359Z,6.50
2022-11-21T16:03:36.900Z,6.57
2022-11-21T16:05:38.445Z,7.28
2022-11-21T16:07:40.077Z,7.70
2022-11-21T16:11:43.022Z,6.45
2022-11-21T16:13:48.513Z,7.15
2022-11-21T16:15:50.153Z,7.47
2022-11-21T16:19:56.281Z,6.35
2022-11-21T16:21:57.791Z,7.35
2022-11-21T16:23:59.358Z,6.55
2022-11-21T16:26:01.308Z,6.85
2022-11-21T16:28:06.949Z,7.05
2022-11-21T16:30:09.899Z,7.00
2022-11-21T16:32:11.516Z,7.00
2022-11-21T16:36:20.656Z,7.20
2022-11-21T16:38:23.438Z,7.93
2022-11-21T16:40:24.988Z,7.55
2022-11-21T16:42:26.619Z,7.63
2022-11-21T16:46:31.403Z,7.20
2022-11-21T16:48:33.237Z,7.88
2022-11-21T16:50:36.190Z,9.10
2022-11-21T16:52:37.718Z,7.68
2022-11-21T16:54:39.311Z,8.75
2022-11-21T16:56:40.837Z,8.95
2022-11-21T16:58:42.982Z,7.72
2022-11-21T17:00:44.914Z,11.18
2022-11-21T17:02:47.107Z,8.52
2022-11-21T17:04:48.765Z,8.48
2022-11-21T17:06:51.745Z,8.48
2022-11-21T17:08:53.308Z,8.93
2022-11-21T17:10:54.845Z,7.90
2022-11-21T17:12:56.470Z,8.82
2022-11-21T17:14:58.083Z,8.43
2022-11-21T17:16:59.696Z,8.73
2022-11-21T17:19:02.839Z,9.10
2022-11-21T17:21:05.000Z,8.15
2022-11-21T17:23:07.872Z,8.23
2022-11-21T17:25:09.922Z,8.50
2022-11-21T17:27:11.478Z,8.70
2022-11-21T17:29:13.005Z,8.55
2022-11-21T17:31:15.671Z,8.48
2022-11-21T17:33:17.311Z,8.30
2022-11-21T17:35:18.906Z,8.80
2022-11-21T17:37:20.520Z,8.45
2022-11-21T17:39:29.394Z,8.68
2022-11-21T17:41:31.606Z,14.93
2022-11-21T17:43:33.988Z,8.45
2022-11-21T17:45:35.837Z,8.60
2022-11-21T17:47:37.527Z,10.88
2022-11-21T17:49:39.141Z,14.38
2022-11-21T17:51:41.006Z,11.10
2022-11-21T17:53:44.342Z,9.85
2022-11-21T17:55:49.072Z,11.18
2022-11-21T17:57:50.654Z,9.75
2022-11-21T17:59:52.208Z,8.55
2022-11-21T18:01:54.372Z,8.63
2022-11-21T18:03:58.101Z,9.27
2022-11-21T18:06:00.436Z,8.88
2022-11-21T18:08:02.002Z,9.07
2022-11-21T18:10:27.345Z,8.93
2022-11-21T18:12:26.946Z,8.70
2022-11-21T18:14:28.641Z,8.25
2022-11-21T18:16:32.064Z,8.60
2022-11-21T18:18:34.644Z,8.77
2022-11-21T18:20:36.213Z,8.85
2022-11-21T18:22:37.758Z,8.98
2022-11-21T18:24:39.324Z,8.70
2022-11-21T18:26:41.081Z,8.20
2022-11-21T18:30:45.550Z,8.45
2022-11-21T18:32:48.499Z,8.95
2022-11-21T18:34:50.087Z,8.88
2022-11-21T18:36:51.730Z,9.30
2022-11-21T18:39:00.562Z,8.15
2022-11-21T18:41:06.750Z,8.95
2022-11-21T18:43:08.388Z,8.52
2022-11-21T18:45:13.308Z,8.73
2022-11-21T18:47:20.401Z,8.68
2022-11-21T18:49:22.268Z,9.10
2022-11-21T18:51:25.671Z,8.57
2022-11-21T18:53:27.251Z,7.75
2022-11-21T18:57:30.893Z,9.05
2022-11-21T18:59:32.435Z,9.10
2022-11-21T19:01:36.858Z,9.63
2022-11-21T19:03:39.200Z,8.55
2022-11-21T19:05:41.116Z,9.60
2022-11-21T19:07:42.866Z,8.52
2022-11-21T19:09:44.488Z,8.25
2022-11-21T19:11:46.109Z,8.30
2022-11-21T19:13:48.031Z,9.60
2022-11-21T19:15:49.643Z,9.13
2022-11-21T19:17:52.562Z,9.00
2022-11-21T19:19:54.130Z,8.65
2022-11-21T19:21:55.781Z,8.90
2022-11-21T19:23:57.345Z,8.27
2022-11-21T19:25:59.893Z,7.53
2022-11-21T19:28:01.667Z,8.35
2022-11-21T19:32:05.439Z,7.88
2022-11-21T19:34:08.447Z,7.40
2022-11-21T19:36:13.252Z,7.90
2022-11-21T19:38:15.068Z,7.63
2022-11-21T19:40:17.349Z,7.75
2022-11-21T19:42:19.130Z,7.78
2022-11-21T19:44:20.691Z,7.93
2022-11-21T19:46:24.379Z,7.72
2022-11-21T19:48:25.917Z,6.57
2022-11-21T19:50:28.913Z,7.43
2022-11-21T19:52:30.741Z,7.65
2022-11-21T19:54:32.429Z,7.25
2022-11-21T19:58:35.738Z,7.28
2022-11-21T20:02:41.389Z,6.30
2022-11-21T20:04:43.446Z,6.55
2022-11-21T20:06:46.383Z,6.72
2022-11-21T20:08:49.643Z,7.60
2022-11-21T20:10:51.359Z,7.20
2022-11-21T20:14:54.553Z,7.15
2022-11-21T20:18:59.674Z,6.47
2022-11-21T20:21:07.594Z,7.07
2022-11-21T20:23:10.582Z,7.32
2022-11-21T20:25:12.256Z,6.93
2022-11-21T20:29:15.946Z,6.85
2022-11-21T20:31:18.904Z,6.93
2022-11-21T20:33:21.130Z,6.78
2022-11-21T20:35:22.763Z,6.60
2022-11-21T20:37:24.388Z,6.95
2022-11-21T20:39:27.615Z,7.18
2022-11-21T20:41:31.012Z,7.05
2022-11-21T20:44:02.867Z,7.25
2022-11-21T20:46:09.797Z,7.60
2022-11-21T20:48:18.770Z,6.78
2022-11-21T20:51:01.441Z,6.60
2022-11-21T20:55:07.074Z,6.18
2022-11-21T20:57:14.579Z,7.75
2022-11-21T20:59:17.332Z,6.65
2022-11-21T21:01:20.611Z,7.07
2022-11-21T21:03:22.240Z,6.72
2022-11-21T21:05:23.823Z,6.30
2022-11-21T21:07:25.644Z,6.05
2022-11-21T21:09:27.432Z,6.38
2022-11-21T21:11:50.813Z,6.70
2022-11-21T21:13:52.368Z,6.80
2022-11-21T21:17:55.413Z,6.55
2022-11-21T21:21:58.689Z,6.53
2022-11-21T21:24:02.152Z,6.85
2022-11-21T21:26:08.411Z,6.88
2022-11-21T21:28:11.398Z,7.32
2022-11-21T21:30:13.525Z,7.30
2022-11-21T21:32:15.132Z,6.88
2022-11-21T21:34:17.049Z,7.90
2022-11-21T21:36:20.363Z,7.03
2022-11-21T21:38:21.967Z,6.88
2022-11-21T21:40:23.515Z,6.80
2022-11-21T21:42:25.247Z,5.97
2022-11-21T21:46:35.178Z,6.03
2022-11-21T21:48:36.901Z,6.40
2022-11-21T21:52:39.917Z,6.13
2022-11-21T21:54:41.866Z,6.22
2022-11-21T21:56:44.195Z,6.30
2022-11-21T21:58:47.093Z,6.28
2022-11-21T22:00:50.156Z,6.55
2022-11-21T22:02:51.721Z,6.78
2022-11-21T22:04:53.388Z,8.30
2022-11-21T22:06:54.937Z,7.00
2022-11-21T22:08:56.788Z,6.68
2022-11-21T22:11:02.871Z,6.88
2022-11-21T22:13:04.476Z,6.05
2022-11-21T22:15:07.034Z,7.55
2022-11-21T22:17:09.925Z,7.30
2022-11-21T22:19:11.583Z,6.55
2022-11-21T22:21:14.152Z,6.63
2022-11-21T22:23:15.873Z,6.80
2022-11-21T22:27:18.825Z,6.50
2022-11-21T22:29:20.403Z,7.30
2022-11-21T22:31:22.101Z,6.90
2022-11-21T22:35:27.230Z,6.38
2022-11-21T22:37:28.777Z,6.10
2022-11-21T22:39:30.364Z,6.60
2022-11-21T22:41:31.898Z,6.65
2022-11-21T22:43:33.514Z,6.32
2022-11-21T22:45:35.134Z,7.28
2022-11-21T22:47:36.916Z,6.72
2022-11-21T22:51:41.301Z,6.38
2022-11-21T22:53:45.026Z,6.47
2022-11-21T22:55:55.793Z,7.22
2022-11-21T22:57:57.712Z,6.13
2022-11-21T22:59:59.254Z,6.47
2022-11-21T23:02:00.868Z,6.82
2022-11-21T23:04:02.558Z,6.03
2022-11-21T23:06:07.696Z,6.68
2022-11-21T23:08:09.237Z,6.30
2022-11-21T23:10:11.044Z,5.97
2022-11-21T23:14:13.891Z,6.82
2022-11-21T23:16:16.974Z,6.30
2022-11-21T23:18:18.525Z,6.70
2022-11-21T23:20:22.492Z,6.80
2022-11-21T23:22:25.533Z,6.53
2022-11-21T23:24:27.068Z,6.90
2022-11-21T23:26:28.674Z,6.40
2022-11-21T23:28:30.395Z,6.05
2022-11-21T23:30:32.019Z,6.70
2022-11-21T23:32:33.639Z,6.47
2022-11-21T23:34:35.251Z,7.05
2022-11-21T23:36:37.094Z,6.72
2022-11-21T23:40:41.716Z,6.47
2022-11-21T23:42:45.347Z,6.47
2022-11-21T23:44:46.861Z,7.05
2022-11-21T23:46:49.641Z,6.35
2022-11-21T23:48:51.179Z,7.45
2022-11-21T23:50:52.750Z,5.65
2022-11-21T23:52:59.033Z,7.53
2022-11-21T23:55:04.630Z,7.32
2022-11-21T23:57:06.176Z,7.07
2022-11-21T23:59:07.955Z,7.35
